sensor_id;sensor_type;location;lat;lon;timestamp;P1;durP1;ratioP1;P2;durP2;ratioP2
38653;SDS011;24413;52.450;20.706;2022-10-16T00:01:53;23.57;;;16.33;;
38653;SDS011;24413;52.450;20.706;2022-10-16T00:04:18;26.43;;;16.27;;
38653;SDS011;24413;52.450;20.706;2022-10-16T00:06:43;19.80;;;15.37;;
38653;SDS011;24413;52.450;20.706;2022-10-16T00:09:09;23.23;;;16.80;;
38653;SDS011;24413;52.450;20.706;2022-10-16T00:11:35;25.40;;;14.60;;
38653;SDS011;24413;52.450;20.706;2022-10-16T00:14:05;21.02;;;14.30;;
38653;SDS011;24413;52.450;20.706;2022-10-16T00:16:31;24.65;;;14.55;;
38653;SDS011;24413;52.450;20.706;2022-10-16T00:18:56;23.10;;;15.30;;
38653;SDS011;24413;52.450;20.706;2022-10-16T00:21:23;22.33;;;16.00;;
38653;SDS011;24413;52.450;20.706;2022-10-16T00:23:52;22.40;;;14.52;;
38653;SDS011;24413;52.450;20.706;2022-10-16T00:26:17;20.27;;;14.20;;
38653;SDS011;24413;52.450;20.706;2022-10-16T00:28:45;20.33;;;15.48;;
38653;SDS011;24413;52.450;20.706;2022-10-16T00:31:11;20.83;;;14.68;;
38653;SDS011;24413;52.450;20.706;2022-10-16T00:33:37;20.67;;;13.88;;
38653;SDS011;24413;52.450;20.706;2022-10-16T00:36:03;20.90;;;13.45;;
38653;SDS011;24413;52.450;20.706;2022-10-16T00:38:29;22.95;;;14.43;;
38653;SDS011;24413;52.450;20.706;2022-10-16T00:40:54;18.33;;;12.50;;
38653;SDS011;24413;52.450;20.706;2022-10-16T00:46:04;18.37;;;12.23;;
38653;SDS011;24413;52.450;20.706;2022-10-16T00:48:30;16.92;;;12.30;;
38653;SDS011;24413;52.450;20.706;2022-10-16T00:50:56;17.35;;;13.05;;
38653;SDS011;24413;52.450;20.706;2022-10-16T00:53:22;17.48;;;12.75;;
38653;SDS011;24413;52.450;20.706;2022-10-16T00:55:48;17.05;;;12.40;;
38653;SDS011;24413;52.450;20.706;2022-10-16T00:58:13;20.83;;;11.95;;
38653;SDS011;24413;52.450;20.706;2022-10-16T01:00:38;17.27;;;12.30;;
38653;SDS011;24413;52.450;20.706;2022-10-16T01:03:22;17.63;;;12.00;;
38653;SDS011;24413;52.450;20.706;2022-10-16T01:05:51;16.67;;;11.90;;
38653;SDS011;24413;52.450;20.706;2022-10-16T01:08:21;20.80;;;11.30;;
38653;SDS011;24413;52.450;20.706;2022-10-16T01:10:57;23.85;;;12.60;;
38653;SDS011;24413;52.450;20.706;2022-10-16T01:13:27;25.23;;;12.35;;
38653;SDS011;24413;52.450;20.706;2022-10-16T01:16:00;17.15;;;13.13;;
38653;SDS011;24413;52.450;20.706;2022-10-16T01:18:39;21.75;;;12.52;;
38653;SDS011;24413;52.450;20.706;2022-10-16T01:24:15;19.88;;;13.18;;
38653;SDS011;24413;52.450;20.706;2022-10-16T01:29:26;18.37;;;11.80;;
38653;SDS011;24413;52.450;20.706;2022-10-16T01:31:57;16.27;;;11.13;;
38653;SDS011;24413;52.450;20.706;2022-10-16T01:34:35;18.10;;;13.07;;
38653;SDS011;24413;52.450;20.706;2022-10-16T01:37:02;21.10;;;12.07;;
38653;SDS011;24413;52.450;20.706;2022-10-16T01:39:30;17.50;;;13.18;;
38653;SDS011;24413;52.450;20.706;2022-10-16T01:42:00;25.65;;;13.45;;
38653;SDS011;24413;52.450;20.706;2022-10-16T01:44:28;21.95;;;12.95;;
38653;SDS011;24413;52.450;20.706;2022-10-16T01:46:54;19.73;;;12.65;;
38653;SDS011;24413;52.450;20.706;2022-10-16T01:49:20;19.05;;;11.68;;
38653;SDS011;24413;52.450;20.706;2022-10-16T01:51:47;20.55;;;13.70;;
38653;SDS011;24413;52.450;20.706;2022-10-16T01:54:13;20.63;;;12.63;;
38653;SDS011;24413;52.450;20.706;2022-10-16T01:56:39;18.83;;;13.48;;
38653;SDS011;24413;52.450;20.706;2022-10-16T01:59:14;20.58;;;13.25;;
38653;SDS011;24413;52.450;20.706;2022-10-16T02:01:40;18.08;;;13.00;;
38653;SDS011;24413;52.450;20.706;2022-10-16T02:04:26;21.92;;;13.70;;
38653;SDS011;24413;52.450;20.706;2022-10-16T02:06:53;18.65;;;12.93;;
38653;SDS011;24413;52.450;20.706;2022-10-16T02:09:18;21.95;;;13.98;;
38653;SDS011;24413;52.450;20.706;2022-10-16T02:11:43;21.27;;;13.20;;
38653;SDS011;24413;52.450;20.706;2022-10-16T02:14:09;16.60;;;13.38;;
38653;SDS011;24413;52.450;20.706;2022-10-16T02:18:59;16.87;;;13.43;;
38653;SDS011;24413;52.450;20.706;2022-10-16T02:21:28;16.93;;;12.70;;
38653;SDS011;24413;52.450;20.706;2022-10-16T02:29:14;14.35;;;12.50;;
38653;SDS011;24413;52.450;20.706;2022-10-16T02:31:41;22.25;;;12.88;;
38653;SDS011;24413;52.450;20.706;2022-10-16T02:34:08;19.38;;;13.60;;
38653;SDS011;24413;52.450;20.706;2022-10-16T02:36:36;17.63;;;13.88;;
38653;SDS011;24413;52.450;20.706;2022-10-16T02:39:02;23.13;;;13.45;;
38653;SDS011;24413;52.450;20.706;2022-10-16T02:41:29;17.50;;;14.48;;
38653;SDS011;24413;52.450;20.706;2022-10-16T02:43:54;18.67;;;13.43;;
38653;SDS011;24413;52.450;20.706;2022-10-16T02:46:20;20.23;;;13.65;;
38653;SDS011;24413;52.450;20.706;2022-10-16T02:48:45;20.80;;;13.88;;
38653;SDS011;24413;52.450;20.706;2022-10-16T02:51:10;19.20;;;13.87;;
38653;SDS011;24413;52.450;20.706;2022-10-16T02:53:36;24.67;;;13.63;;
38653;SDS011;24413;52.450;20.706;2022-10-16T02:56:01;18.03;;;13.83;;
38653;SDS011;24413;52.450;20.706;2022-10-16T02:58:26;19.05;;;14.35;;
38653;SDS011;24413;52.450;20.706;2022-10-16T03:00:51;21.37;;;15.30;;
38653;SDS011;24413;52.450;20.706;2022-10-16T03:03:16;22.57;;;15.17;;
38653;SDS011;24413;52.450;20.706;2022-10-16T03:05:43;22.40;;;14.63;;
38653;SDS011;24413;52.450;20.706;2022-10-16T03:08:08;21.33;;;13.60;;
38653;SDS011;24413;52.450;20.706;2022-10-16T03:10:33;21.98;;;14.00;;
38653;SDS011;24413;52.450;20.706;2022-10-16T03:12:59;25.13;;;14.60;;
38653;SDS011;24413;52.450;20.706;2022-10-16T03:15:24;23.70;;;14.95;;
38653;SDS011;24413;52.450;20.706;2022-10-16T03:17:50;23.70;;;13.98;;
38653;SDS011;24413;52.450;20.706;2022-10-16T03:20:15;21.70;;;13.27;;
38653;SDS011;24413;52.450;20.706;2022-10-16T03:22:41;20.60;;;14.07;;
38653;SDS011;24413;52.450;20.706;2022-10-16T03:25:06;20.90;;;14.20;;
38653;SDS011;24413;52.450;20.706;2022-10-16T03:27:31;18.17;;;13.30;;
38653;SDS011;24413;52.450;20.706;2022-10-16T03:29:56;22.10;;;13.93;;
38653;SDS011;24413;52.450;20.706;2022-10-16T03:32:22;21.90;;;14.40;;
38653;SDS011;24413;52.450;20.706;2022-10-16T03:34:47;22.42;;;14.40;;
38653;SDS011;24413;52.450;20.706;2022-10-16T03:37:12;20.00;;;13.80;;
38653;SDS011;24413;52.450;20.706;2022-10-16T03:39:37;19.93;;;14.00;;
38653;SDS011;24413;52.450;20.706;2022-10-16T03:42:02;23.70;;;14.33;;
38653;SDS011;24413;52.450;20.706;2022-10-16T03:44:28;21.50;;;14.40;;
38653;SDS011;24413;52.450;20.706;2022-10-16T03:46:53;24.53;;;14.43;;
38653;SDS011;24413;52.450;20.706;2022-10-16T03:49:18;24.23;;;15.43;;
38653;SDS011;24413;52.450;20.706;2022-10-16T03:51:43;21.27;;;14.33;;
38653;SDS011;24413;52.450;20.706;2022-10-16T03:54:09;20.37;;;14.67;;
38653;SDS011;24413;52.450;20.706;2022-10-16T03:56:34;21.17;;;14.98;;
38653;SDS011;24413;52.450;20.706;2022-10-16T03:58:59;22.23;;;15.27;;
38653;SDS011;24413;52.450;20.706;2022-10-16T04:01:25;21.50;;;14.93;;
38653;SDS011;24413;52.450;20.706;2022-10-16T04:03:50;20.63;;;14.50;;
38653;SDS011;24413;52.450;20.706;2022-10-16T04:06:15;23.53;;;14.70;;
38653;SDS011;24413;52.450;20.706;2022-10-16T04:08:42;20.57;;;14.73;;
38653;SDS011;24413;52.450;20.706;2022-10-16T04:11:07;25.92;;;15.43;;
38653;SDS011;24413;52.450;20.706;2022-10-16T04:13:32;21.80;;;16.37;;
38653;SDS011;24413;52.450;20.706;2022-10-16T04:15:58;25.27;;;14.98;;
38653;SDS011;24413;52.450;20.706;2022-10-16T04:18:23;21.37;;;14.57;;
38653;SDS011;24413;52.450;20.706;2022-10-16T04:20:48;19.35;;;14.10;;
38653;SDS011;24413;52.450;20.706;2022-10-16T04:23:13;21.97;;;15.80;;
38653;SDS011;24413;52.450;20.706;2022-10-16T04:25:38;25.40;;;17.70;;
38653;SDS011;24413;52.450;20.706;2022-10-16T04:28:04;25.33;;;15.80;;
38653;SDS011;24413;52.450;20.706;2022-10-16T04:30:29;25.60;;;18.30;;
38653;SDS011;24413;52.450;20.706;2022-10-16T04:32:54;25.93;;;18.77;;
38653;SDS011;24413;52.450;20.706;2022-10-16T04:35:20;27.20;;;18.90;;
38653;SDS011;24413;52.450;20.706;2022-10-16T04:37:45;28.73;;;18.90;;
38653;SDS011;24413;52.450;20.706;2022-10-16T04:40:10;27.92;;;17.73;;
38653;SDS011;24413;52.450;20.706;2022-10-16T04:42:36;21.20;;;15.88;;
38653;SDS011;24413;52.450;20.706;2022-10-16T04:45:01;28.73;;;16.07;;
38653;SDS011;24413;52.450;20.706;2022-10-16T04:47:26;29.53;;;18.00;;
38653;SDS011;24413;52.450;20.706;2022-10-16T04:49:51;26.48;;;17.00;;
38653;SDS011;24413;52.450;20.706;2022-10-16T04:52:16;20.80;;;16.03;;
38653;SDS011;24413;52.450;20.706;2022-10-16T04:54:43;22.88;;;17.02;;
38653;SDS011;24413;52.450;20.706;2022-10-16T04:57:10;22.27;;;16.42;;
38653;SDS011;24413;52.450;20.706;2022-10-16T04:59:35;19.52;;;16.10;;
38653;SDS011;24413;52.450;20.706;2022-10-16T05:02:00;27.33;;;16.55;;
38653;SDS011;24413;52.450;20.706;2022-10-16T05:04:26;27.17;;;16.47;;
38653;SDS011;24413;52.450;20.706;2022-10-16T05:06:51;23.63;;;15.87;;
38653;SDS011;24413;52.450;20.706;2022-10-16T05:09:16;21.53;;;15.77;;
38653;SDS011;24413;52.450;20.706;2022-10-16T05:11:41;22.93;;;16.23;;
38653;SDS011;24413;52.450;20.706;2022-10-16T05:14:06;24.27;;;15.30;;
38653;SDS011;24413;52.450;20.706;2022-10-16T05:16:31;19.60;;;14.87;;
38653;SDS011;24413;52.450;20.706;2022-10-16T05:18:57;28.48;;;15.35;;
38653;SDS011;24413;52.450;20.706;2022-10-16T05:21:22;21.33;;;15.73;;
38653;SDS011;24413;52.450;20.706;2022-10-16T05:23:47;23.70;;;17.10;;
38653;SDS011;24413;52.450;20.706;2022-10-16T05:26:12;20.60;;;15.38;;
38653;SDS011;24413;52.450;20.706;2022-10-16T05:28:38;23.35;;;16.15;;
38653;SDS011;24413;52.450;20.706;2022-10-16T05:31:06;27.73;;;17.93;;
38653;SDS011;24413;52.450;20.706;2022-10-16T05:33:32;26.10;;;16.65;;
38653;SDS011;24413;52.450;20.706;2022-10-16T05:36:00;28.48;;;17.05;;
38653;SDS011;24413;52.450;20.706;2022-10-16T05:38:25;26.95;;;18.27;;
38653;SDS011;24413;52.450;20.706;2022-10-16T05:40:51;28.57;;;21.97;;
38653;SDS011;24413;52.450;20.706;2022-10-16T05:43:17;56.67;;;40.80;;
38653;SDS011;24413;52.450;20.706;2022-10-16T05:45:42;53.70;;;37.83;;
38653;SDS011;24413;52.450;20.706;2022-10-16T05:48:07;38.67;;;31.50;;
38653;SDS011;24413;52.450;20.706;2022-10-16T05:50:33;42.30;;;22.77;;
38653;SDS011;24413;52.450;20.706;2022-10-16T05:52:58;32.37;;;22.70;;
38653;SDS011;24413;52.450;20.706;2022-10-16T05:55:23;32.03;;;23.70;;
38653;SDS011;24413;52.450;20.706;2022-10-16T05:57:48;26.60;;;21.77;;
38653;SDS011;24413;52.450;20.706;2022-10-16T06:00:13;29.47;;;23.37;;
38653;SDS011;24413;52.450;20.706;2022-10-16T06:02:39;36.85;;;25.60;;
38653;SDS011;24413;52.450;20.706;2022-10-16T06:05:04;26.33;;;20.20;;
38653;SDS011;24413;52.450;20.706;2022-10-16T06:07:33;24.92;;;18.65;;
38653;SDS011;24413;52.450;20.706;2022-10-16T06:09:58;32.75;;;23.70;;
38653;SDS011;24413;52.450;20.706;2022-10-16T06:12:23;31.37;;;20.77;;
38653;SDS011;24413;52.450;20.706;2022-10-16T06:14:48;23.20;;;18.63;;
38653;SDS011;24413;52.450;20.706;2022-10-16T06:17:14;26.25;;;17.70;;
38653;SDS011;24413;52.450;20.706;2022-10-16T06:19:39;23.88;;;16.65;;
38653;SDS011;24413;52.450;20.706;2022-10-16T06:22:04;25.13;;;17.10;;
38653;SDS011;24413;52.450;20.706;2022-10-16T06:24:30;23.50;;;17.33;;
38653;SDS011;24413;52.450;20.706;2022-10-16T06:26:55;27.67;;;18.37;;
38653;SDS011;24413;52.450;20.706;2022-10-16T06:29:20;26.27;;;17.30;;
38653;SDS011;24413;52.450;20.706;2022-10-16T06:31:45;22.93;;;16.03;;
38653;SDS011;24413;52.450;20.706;2022-10-16T06:34:10;22.77;;;16.20;;
38653;SDS011;24413;52.450;20.706;2022-10-16T06:36:36;21.02;;;17.05;;
38653;SDS011;24413;52.450;20.706;2022-10-16T06:39:02;23.10;;;17.40;;
38653;SDS011;24413;52.450;20.706;2022-10-16T06:41:27;24.55;;;16.25;;
38653;SDS011;24413;52.450;20.706;2022-10-16T06:43:52;27.43;;;17.40;;
38653;SDS011;24413;52.450;20.706;2022-10-16T06:46:19;27.73;;;19.20;;
38653;SDS011;24413;52.450;20.706;2022-10-16T06:48:44;31.55;;;22.05;;
38653;SDS011;24413;52.450;20.706;2022-10-16T06:51:14;21.80;;;15.55;;
38653;SDS011;24413;52.450;20.706;2022-10-16T06:53:43;24.65;;;16.90;;
38653;SDS011;24413;52.450;20.706;2022-10-16T06:56:10;51.35;;;30.85;;
38653;SDS011;24413;52.450;20.706;2022-10-16T06:58:35;88.85;;;48.85;;
38653;SDS011;24413;52.450;20.706;2022-10-16T07:01:00;66.55;;;31.98;;
38653;SDS011;24413;52.450;20.706;2022-10-16T07:03:25;44.97;;;28.97;;
38653;SDS011;24413;52.450;20.706;2022-10-16T07:05:51;59.43;;;34.83;;
38653;SDS011;24413;52.450;20.706;2022-10-16T07:08:16;46.07;;;26.50;;
38653;SDS011;24413;52.450;20.706;2022-10-16T07:10:41;37.97;;;20.90;;
38653;SDS011;24413;52.450;20.706;2022-10-16T07:13:06;25.07;;;17.13;;
38653;SDS011;24413;52.450;20.706;2022-10-16T07:15:32;29.83;;;19.13;;
38653;SDS011;24413;52.450;20.706;2022-10-16T07:17:58;46.95;;;30.63;;
38653;SDS011;24413;52.450;20.706;2022-10-16T07:20:23;36.63;;;25.70;;
38653;SDS011;24413;52.450;20.706;2022-10-16T07:22:48;30.00;;;17.83;;
38653;SDS011;24413;52.450;20.706;2022-10-16T07:25:14;25.97;;;15.90;;
38653;SDS011;24413;52.450;20.706;2022-10-16T07:27:39;19.07;;;15.37;;
38653;SDS011;24413;52.450;20.706;2022-10-16T07:30:04;19.80;;;15.07;;
38653;SDS011;24413;52.450;20.706;2022-10-16T07:32:30;27.33;;;16.20;;
38653;SDS011;24413;52.450;20.706;2022-10-16T07:34:56;23.80;;;16.52;;
38653;SDS011;24413;52.450;20.706;2022-10-16T07:37:21;23.67;;;16.93;;
38653;SDS011;24413;52.450;20.706;2022-10-16T07:39:47;66.60;;;37.65;;
38653;SDS011;24413;52.450;20.706;2022-10-16T07:42:12;30.98;;;19.00;;
38653;SDS011;24413;52.450;20.706;2022-10-16T07:44:37;28.60;;;18.57;;
38653;SDS011;24413;52.450;20.706;2022-10-16T07:47:02;21.08;;;14.95;;
38653;SDS011;24413;52.450;20.706;2022-10-16T07:49:28;25.20;;;17.00;;
38653;SDS011;24413;52.450;20.706;2022-10-16T07:51:53;23.20;;;16.33;;
38653;SDS011;24413;52.450;20.706;2022-10-16T07:54:18;31.20;;;19.67;;
38653;SDS011;24413;52.450;20.706;2022-10-16T07:56:43;20.57;;;15.47;;
38653;SDS011;24413;52.450;20.706;2022-10-16T07:59:08;19.50;;;14.77;;
38653;SDS011;24413;52.450;20.706;2022-10-16T08:01:33;27.63;;;19.90;;
38653;SDS011;24413;52.450;20.706;2022-10-16T08:03:59;45.60;;;30.27;;
38653;SDS011;24413;52.450;20.706;2022-10-16T08:06:24;31.83;;;19.20;;
38653;SDS011;24413;52.450;20.706;2022-10-16T08:08:49;26.77;;;16.50;;
38653;SDS011;24413;52.450;20.706;2022-10-16T08:11:14;25.33;;;15.57;;
38653;SDS011;24413;52.450;20.706;2022-10-16T08:13:40;26.30;;;18.10;;
38653;SDS011;24413;52.450;20.706;2022-10-16T08:16:05;27.98;;;18.17;;
38653;SDS011;24413;52.450;20.706;2022-10-16T08:18:33;30.75;;;17.08;;
38653;SDS011;24413;52.450;20.706;2022-10-16T08:20:58;35.13;;;22.13;;
38653;SDS011;24413;52.450;20.706;2022-10-16T08:23:25;63.10;;;33.38;;
38653;SDS011;24413;52.450;20.706;2022-10-16T08:25:50;47.13;;;29.27;;
38653;SDS011;24413;52.450;20.706;2022-10-16T08:28:16;36.65;;;20.75;;
38653;SDS011;24413;52.450;20.706;2022-10-16T08:30:41;29.15;;;17.80;;
38653;SDS011;24413;52.450;20.706;2022-10-16T08:33:06;26.35;;;18.05;;
38653;SDS011;24413;52.450;20.706;2022-10-16T08:35:32;32.20;;;17.77;;
38653;SDS011;24413;52.450;20.706;2022-10-16T08:37:57;29.60;;;17.03;;
38653;SDS011;24413;52.450;20.706;2022-10-16T08:40:23;26.07;;;17.60;;
38653;SDS011;24413;52.450;20.706;2022-10-16T08:43:11;26.80;;;16.08;;
38653;SDS011;24413;52.450;20.706;2022-10-16T08:48:28;21.20;;;16.15;;
38653;SDS011;24413;52.450;20.706;2022-10-16T08:50:55;34.22;;;18.90;;
38653;SDS011;24413;52.450;20.706;2022-10-16T08:53:22;30.85;;;18.65;;
38653;SDS011;24413;52.450;20.706;2022-10-16T08:55:49;25.50;;;16.77;;
38653;SDS011;24413;52.450;20.706;2022-10-16T08:58:22;69.43;;;27.65;;
38653;SDS011;24413;52.450;20.706;2022-10-16T09:00:50;46.75;;;23.73;;
38653;SDS011;24413;52.450;20.706;2022-10-16T09:03:22;27.38;;;17.52;;
38653;SDS011;24413;52.450;20.706;2022-10-16T09:05:53;27.90;;;17.38;;
38653;SDS011;24413;52.450;20.706;2022-10-16T09:16:28;27.77;;;14.85;;
38653;SDS011;24413;52.450;20.706;2022-10-16T09:21:24;20.67;;;15.60;;
38653;SDS011;24413;52.450;20.706;2022-10-16T09:23:50;25.27;;;18.00;;
38653;SDS011;24413;52.450;20.706;2022-10-16T09:26:16;21.58;;;15.02;;
38653;SDS011;24413;52.450;20.706;2022-10-16T09:28:41;24.58;;;15.35;;
38653;SDS011;24413;52.450;20.706;2022-10-16T09:31:10;23.40;;;15.02;;
38653;SDS011;24413;52.450;20.706;2022-10-16T09:33:37;19.30;;;14.07;;
38653;SDS011;24413;52.450;20.706;2022-10-16T09:36:04;22.65;;;13.35;;
38653;SDS011;24413;52.450;20.706;2022-10-16T09:38:31;20.63;;;13.70;;
38653;SDS011;24413;52.450;20.706;2022-10-16T09:40:57;21.55;;;14.63;;
38653;SDS011;24413;52.450;20.706;2022-10-16T09:43:24;18.05;;;13.95;;
38653;SDS011;24413;52.450;20.706;2022-10-16T09:48:44;17.70;;;12.52;;
38653;SDS011;24413;52.450;20.706;2022-10-16T09:54:14;40.40;;;23.65;;
38653;SDS011;24413;52.450;20.706;2022-10-16T09:56:39;18.92;;;14.30;;
38653;SDS011;24413;52.450;20.706;2022-10-16T09:59:10;23.85;;;15.80;;
38653;SDS011;24413;52.450;20.706;2022-10-16T10:01:37;23.58;;;14.68;;
38653;SDS011;24413;52.450;20.706;2022-10-16T10:04:03;18.20;;;13.57;;
38653;SDS011;24413;52.450;20.706;2022-10-16T10:06:33;15.75;;;12.15;;
38653;SDS011;24413;52.450;20.706;2022-10-16T10:11:37;13.13;;;10.37;;
38653;SDS011;24413;52.450;20.706;2022-10-16T10:16:51;20.90;;;11.45;;
38653;SDS011;24413;52.450;20.706;2022-10-16T10:19:21;15.10;;;11.63;;
38653;SDS011;24413;52.450;20.706;2022-10-16T10:21:47;16.40;;;11.85;;
38653;SDS011;24413;52.450;20.706;2022-10-16T10:24:12;15.07;;;11.05;;
38653;SDS011;24413;52.450;20.706;2022-10-16T10:26:38;18.05;;;11.52;;
38653;SDS011;24413;52.450;20.706;2022-10-16T10:29:08;16.35;;;11.07;;
38653;SDS011;24413;52.450;20.706;2022-10-16T10:31:48;16.33;;;11.32;;
38653;SDS011;24413;52.450;20.706;2022-10-16T10:34:32;15.45;;;11.93;;
38653;SDS011;24413;52.450;20.706;2022-10-16T10:37:02;15.80;;;12.13;;
38653;SDS011;24413;52.450;20.706;2022-10-16T10:39:40;18.13;;;11.60;;
38653;SDS011;24413;52.450;20.706;2022-10-16T10:42:11;15.02;;;11.35;;
38653;SDS011;24413;52.450;20.706;2022-10-16T10:57:51;13.98;;;10.13;;
38653;SDS011;24413;52.450;20.706;2022-10-16T11:08:07;22.58;;;14.02;;
38653;SDS011;24413;52.450;20.706;2022-10-16T11:10:38;14.20;;;11.18;;
38653;SDS011;24413;52.450;20.706;2022-10-16T11:13:19;23.88;;;11.93;;
38653;SDS011;24413;52.450;20.706;2022-10-16T11:15:47;16.08;;;12.07;;
38653;SDS011;24413;52.450;20.706;2022-10-16T11:18:18;15.48;;;12.80;;
38653;SDS011;24413;52.450;20.706;2022-10-16T11:20:47;17.92;;;13.70;;
38653;SDS011;24413;52.450;20.706;2022-10-16T11:26:00;20.10;;;11.63;;
38653;SDS011;24413;52.450;20.706;2022-10-16T11:30:54;14.03;;;11.00;;
38653;SDS011;24413;52.450;20.706;2022-10-16T11:33:27;20.33;;;11.63;;
38653;SDS011;24413;52.450;20.706;2022-10-16T11:38:26;16.53;;;11.63;;
38653;SDS011;24413;52.450;20.706;2022-10-16T11:40:52;20.15;;;13.50;;
38653;SDS011;24413;52.450;20.706;2022-10-16T11:43:29;15.10;;;12.07;;
38653;SDS011;24413;52.450;20.706;2022-10-16T11:45:57;20.42;;;13.23;;
38653;SDS011;24413;52.450;20.706;2022-10-16T11:53:42;40.28;;;25.73;;
38653;SDS011;24413;52.450;20.706;2022-10-16T11:56:11;101.55;;;63.75;;
38653;SDS011;24413;52.450;20.706;2022-10-16T12:03:40;33.03;;;22.30;;
38653;SDS011;24413;52.450;20.706;2022-10-16T12:06:11;48.22;;;30.85;;
38653;SDS011;24413;52.450;20.706;2022-10-16T12:08:38;85.88;;;49.67;;
38653;SDS011;24413;52.450;20.706;2022-10-16T12:11:07;63.80;;;40.67;;
38653;SDS011;24413;52.450;20.706;2022-10-16T12:13:39;52.85;;;36.40;;
38653;SDS011;24413;52.450;20.706;2022-10-16T12:18:36;27.10;;;17.30;;
38653;SDS011;24413;52.450;20.706;2022-10-16T12:21:01;15.63;;;11.23;;
38653;SDS011;24413;52.450;20.706;2022-10-16T12:23:52;16.13;;;12.35;;
38653;SDS011;24413;52.450;20.706;2022-10-16T12:26:23;36.70;;;14.65;;
38653;SDS011;24413;52.450;20.706;2022-10-16T12:28:49;30.10;;;13.85;;
38653;SDS011;24413;52.450;20.706;2022-10-16T12:31:16;17.52;;;13.30;;
38653;SDS011;24413;52.450;20.706;2022-10-16T12:33:42;16.20;;;11.97;;
38653;SDS011;24413;52.450;20.706;2022-10-16T12:36:26;15.95;;;11.52;;
38653;SDS011;24413;52.450;20.706;2022-10-16T12:38:52;19.02;;;11.20;;
38653;SDS011;24413;52.450;20.706;2022-10-16T12:41:25;14.43;;;10.50;;
38653;SDS011;24413;52.450;20.706;2022-10-16T12:43:50;16.77;;;10.55;;
38653;SDS011;24413;52.450;20.706;2022-10-16T12:48:42;15.63;;;9.97;;
38653;SDS011;24413;52.450;20.706;2022-10-16T12:51:25;22.52;;;12.10;;
38653;SDS011;24413;52.450;20.706;2022-10-16T12:54:20;20.98;;;12.18;;
38653;SDS011;24413;52.450;20.706;2022-10-16T13:08:09;58.10;;;39.35;;
38653;SDS011;24413;52.450;20.706;2022-10-16T13:29:23;19.55;;;14.75;;
38653;SDS011;24413;52.450;20.706;2022-10-16T13:31:48;16.65;;;13.25;;
38653;SDS011;24413;52.450;20.706;2022-10-16T13:34:17;15.73;;;12.15;;
38653;SDS011;24413;52.450;20.706;2022-10-16T13:36:44;18.73;;;12.90;;
38653;SDS011;24413;52.450;20.706;2022-10-16T13:39:11;23.05;;;12.85;;
38653;SDS011;24413;52.450;20.706;2022-10-16T13:41:37;18.40;;;12.20;;
38653;SDS011;24413;52.450;20.706;2022-10-16T13:44:02;12.50;;;10.40;;
38653;SDS011;24413;52.450;20.706;2022-10-16T13:46:27;21.57;;;11.40;;
38653;SDS011;24413;52.450;20.706;2022-10-16T13:48:58;19.20;;;13.32;;
38653;SDS011;24413;52.450;20.706;2022-10-16T13:51:23;18.23;;;14.30;;
38653;SDS011;24413;52.450;20.706;2022-10-16T13:53:48;18.30;;;16.07;;
38653;SDS011;24413;52.450;20.706;2022-10-16T13:56:15;16.33;;;14.63;;
38653;SDS011;24413;52.450;20.706;2022-10-16T13:58:41;23.90;;;14.02;;
38653;SDS011;24413;52.450;20.706;2022-10-16T14:01:28;19.35;;;13.80;;
38653;SDS011;24413;52.450;20.706;2022-10-16T14:03:51;19.85;;;15.38;;
38653;SDS011;24413;52.450;20.706;2022-10-16T14:06:18;28.50;;;15.95;;
38653;SDS011;24413;52.450;20.706;2022-10-16T14:08:44;26.10;;;15.27;;
38653;SDS011;24413;52.450;20.706;2022-10-16T14:11:11;81.15;;;33.40;;
38653;SDS011;24413;52.450;20.706;2022-10-16T14:13:38;179.27;;;66.28;;
38653;SDS011;24413;52.450;20.706;2022-10-16T14:16:07;124.50;;;49.65;;
38653;SDS011;24413;52.450;20.706;2022-10-16T14:18:33;72.03;;;32.25;;
38653;SDS011;24413;52.450;20.706;2022-10-16T14:21:06;42.70;;;24.15;;
38653;SDS011;24413;52.450;20.706;2022-10-16T14:23:33;33.60;;;21.85;;
38653;SDS011;24413;52.450;20.706;2022-10-16T14:28:35;40.72;;;25.05;;
38653;SDS011;24413;52.450;20.706;2022-10-16T14:31:01;36.80;;;22.65;;
38653;SDS011;24413;52.450;20.706;2022-10-16T14:35:59;23.73;;;17.02;;
38653;SDS011;24413;52.450;20.706;2022-10-16T14:38:24;18.10;;;14.65;;
38653;SDS011;24413;52.450;20.706;2022-10-16T14:40:50;19.85;;;16.33;;
38653;SDS011;24413;52.450;20.706;2022-10-16T14:43:20;21.37;;;16.30;;
38653;SDS011;24413;52.450;20.706;2022-10-16T14:45:49;19.63;;;15.68;;
38653;SDS011;24413;52.450;20.706;2022-10-16T14:48:16;22.48;;;17.25;;
38653;SDS011;24413;52.450;20.706;2022-10-16T14:50:42;20.52;;;17.75;;
38653;SDS011;24413;52.450;20.706;2022-10-16T14:53:09;29.83;;;21.00;;
38653;SDS011;24413;52.450;20.706;2022-10-16T14:55:36;30.73;;;21.70;;
38653;SDS011;24413;52.450;20.706;2022-10-16T14:58:01;32.25;;;23.38;;
38653;SDS011;24413;52.450;20.706;2022-10-16T15:00:27;29.63;;;22.90;;
38653;SDS011;24413;52.450;20.706;2022-10-16T15:02:52;33.63;;;24.93;;
38653;SDS011;24413;52.450;20.706;2022-10-16T15:05:21;31.63;;;23.23;;
38653;SDS011;24413;52.450;20.706;2022-10-16T15:07:51;29.67;;;23.08;;
38653;SDS011;24413;52.450;20.706;2022-10-16T15:10:18;44.22;;;30.10;;
38653;SDS011;24413;52.450;20.706;2022-10-16T15:12:44;49.08;;;32.13;;
38653;SDS011;24413;52.450;20.706;2022-10-16T15:15:51;66.55;;;45.15;;
38653;SDS011;24413;52.450;20.706;2022-10-16T15:17:58;75.72;;;48.28;;
38653;SDS011;24413;52.450;20.706;2022-10-16T15:20:32;71.10;;;50.80;;
38653;SDS011;24413;52.450;20.706;2022-10-16T15:22:59;91.65;;;50.53;;
38653;SDS011;24413;52.450;20.706;2022-10-16T15:25:29;72.88;;;50.75;;
38653;SDS011;24413;52.450;20.706;2022-10-16T15:27:54;67.75;;;46.55;;
38653;SDS011;24413;52.450;20.706;2022-10-16T15:30:20;61.08;;;38.83;;
38653;SDS011;24413;52.450;20.706;2022-10-16T15:32:45;54.22;;;34.63;;
38653;SDS011;24413;52.450;20.706;2022-10-16T15:35:10;43.00;;;30.40;;
38653;SDS011;24413;52.450;20.706;2022-10-16T15:37:36;45.23;;;29.33;;
38653;SDS011;24413;52.450;20.706;2022-10-16T15:40:01;43.57;;;26.63;;
38653;SDS011;24413;52.450;20.706;2022-10-16T15:42:26;38.43;;;26.43;;
38653;SDS011;24413;52.450;20.706;2022-10-16T15:44:51;37.70;;;22.47;;
38653;SDS011;24413;52.450;20.706;2022-10-16T15:47:16;33.83;;;21.13;;
38653;SDS011;24413;52.450;20.706;2022-10-16T15:49:42;60.87;;;24.03;;
38653;SDS011;24413;52.450;20.706;2022-10-16T15:52:07;28.83;;;22.37;;
38653;SDS011;24413;52.450;20.706;2022-10-16T15:54:32;32.37;;;23.47;;
38653;SDS011;24413;52.450;20.706;2022-10-16T15:56:57;34.33;;;24.40;;
38653;SDS011;24413;52.450;20.706;2022-10-16T15:59:22;36.00;;;27.43;;
38653;SDS011;24413;52.450;20.706;2022-10-16T16:01:48;53.27;;;37.07;;
38653;SDS011;24413;52.450;20.706;2022-10-16T16:04:13;57.90;;;41.40;;
38653;SDS011;24413;52.450;20.706;2022-10-16T16:06:38;83.43;;;53.95;;
38653;SDS011;24413;52.450;20.706;2022-10-16T16:09:09;93.60;;;63.97;;